createdAt,value
2019-05-19T00:01:12.143Z,1.93
2019-05-19T00:03:15.692Z,2.10
2019-05-19T00:05:19.639Z,2.47
2019-05-19T00:07:23.552Z,2.13
2019-05-19T00:09:27.453Z,2.20
2019-05-19T00:11:31.269Z,2.50
2019-05-19T00:13:35.365Z,2.30
2019-05-19T00:15:39.196Z,2.53
2019-05-19T00:17:43.081Z,2.40
2019-05-19T00:19:46.991Z,3.20
2019-05-19T00:21:50.521Z,2.90
2019-05-19T00:23:54.495Z,3.03
2019-05-19T00:25:58.415Z,3.73
2019-05-19T00:28:02.407Z,3.33
2019-05-19T00:30:09.407Z,3.20
2019-05-19T00:32:13.292Z,3.83
2019-05-19T00:34:17.094Z,4.20
2019-05-19T00:36:20.643Z,4.10
2019-05-19T00:38:24.493Z,4.33
2019-05-19T00:40:28.026Z,4.23
2019-05-19T00:42:31.569Z,4.30
2019-05-19T00:44:35.405Z,5.27
2019-05-19T00:46:39.031Z,5.00
2019-05-19T00:48:42.900Z,4.23
2019-05-19T00:50:46.789Z,4.30
2019-05-19T00:52:50.341Z,4.40
2019-05-19T00:54:54.320Z,4.47
2019-05-19T00:56:59.224Z,4.67
2019-05-19T00:59:04.556Z,4.33
2019-05-19T01:01:08.161Z,4.67
2019-05-19T01:03:11.678Z,4.50
2019-05-19T01:05:15.661Z,4.80
2019-05-19T01:07:19.271Z,5.33
2019-05-19T01:09:23.188Z,5.27
2019-05-19T01:11:26.692Z,5.07
2019-05-19T01:13:30.566Z,5.27
2019-05-19T01:15:34.131Z,4.67
2019-05-19T01:17:37.978Z,6.13
2019-05-19T01:19:55.230Z,6.10
2019-05-19T01:21:47.419Z,5.37
2019-05-19T01:23:50.948Z,5.50
2019-05-19T01:25:54.844Z,5.50
2019-05-19T01:27:58.722Z,5.33
2019-05-19T01:30:02.646Z,5.37
2019-05-19T01:32:06.536Z,5.13
2019-05-19T01:34:10.052Z,5.43
2019-05-19T01:36:13.636Z,5.20
2019-05-19T01:38:17.139Z,5.37
2019-05-19T01:40:21.025Z,5.23
2019-05-19T01:42:24.791Z,5.20
2019-05-19T01:44:28.631Z,5.57
2019-05-19T01:46:32.432Z,5.03
2019-05-19T01:48:36.236Z,5.00
2019-05-19T01:50:39.769Z,5.40
2019-05-19T01:52:43.654Z,5.47
2019-05-19T01:54:47.562Z,4.97
2019-05-19T01:56:51.057Z,5.10
2019-05-19T01:58:54.963Z,5.23
2019-05-19T02:00:58.854Z,5.43
2019-05-19T02:03:02.405Z,5.77
2019-05-19T02:05:07.067Z,5.10
2019-05-19T02:07:10.911Z,6.70
2019-05-19T02:09:14.388Z,5.77
2019-05-19T02:11:18.384Z,5.40
2019-05-19T02:13:21.934Z,6.13
2019-05-19T02:15:25.798Z,6.17
2019-05-19T02:17:29.698Z,6.50
2019-05-19T02:19:33.617Z,6.37
2019-05-19T02:21:37.402Z,7.33
2019-05-19T02:23:41.306Z,6.63
2019-05-19T02:25:45.207Z,7.00
2019-05-19T02:27:49.224Z,6.67
2019-05-19T02:29:53.136Z,7.17
2019-05-19T02:31:56.932Z,7.70
2019-05-19T02:34:00.834Z,6.67
2019-05-19T02:36:05.563Z,7.37
2019-05-19T02:38:09.361Z,7.30
2019-05-19T02:40:15.110Z,7.93
2019-05-19T02:42:20.749Z,7.10
2019-05-19T02:44:26.835Z,7.33
2019-05-19T02:46:31.670Z,7.60
2019-05-19T02:48:36.431Z,7.27
2019-05-19T02:50:51.503Z,7.17
2019-05-19T02:52:49.575Z,8.07
2019-05-19T02:54:54.933Z,8.47
2019-05-19T02:57:00.091Z,7.73
2019-05-19T02:59:04.529Z,7.63
2019-05-19T03:01:08.712Z,8.30
2019-05-19T03:03:12.628Z,8.33
2019-05-19T03:05:16.337Z,11.23
2019-05-19T03:07:19.862Z,8.73
2019-05-19T03:09:24.006Z,8.25
2019-05-19T03:11:28.025Z,8.20
2019-05-19T03:13:32.040Z,9.13
2019-05-19T03:15:35.945Z,8.93
2019-05-19T03:17:39.837Z,11.13
2019-05-19T03:19:43.649Z,9.47
2019-05-19T03:21:47.484Z,8.83
2019-05-19T03:23:51.678Z,8.55
2019-05-19T03:25:55.871Z,9.00
2019-05-19T03:27:59.689Z,8.93
2019-05-19T03:30:21.312Z,8.50
2019-05-19T03:32:27.160Z,8.00
2019-05-19T03:34:30.965Z,8.28
2019-05-19T03:36:35.063Z,8.05
2019-05-19T03:38:38.880Z,8.43
2019-05-19T03:40:42.771Z,8.53
2019-05-19T03:42:46.602Z,8.63
2019-05-19T03:44:50.781Z,9.18
2019-05-19T03:46:54.595Z,9.20
2019-05-19T03:48:58.804Z,8.75
2019-05-19T03:51:02.619Z,8.83
2019-05-19T03:53:06.461Z,8.53
2019-05-19T03:55:10.078Z,8.93
2019-05-19T03:57:13.596Z,9.07
2019-05-19T03:59:31.135Z,10.30
2019-05-19T04:14:43.014Z,9.40
2019-05-19T04:19:09.779Z,13.30
2019-05-19T04:21:13.671Z,11.07
2019-05-19T04:23:18.920Z,11.27
2019-05-19T04:25:23.648Z,11.53
2019-05-19T04:27:28.005Z,11.87
2019-05-19T04:29:32.157Z,11.63
2019-05-19T04:32:25.139Z,12.20
2019-05-19T04:34:31.195Z,10.57
2019-05-19T04:36:35.712Z,10.33
2019-05-19T04:39:06.428Z,12.23
2019-05-19T04:41:11.148Z,11.83
2019-05-19T04:43:43.225Z,10.70
2019-05-19T04:46:52.337Z,10.73
2019-05-19T04:52:17.479Z,11.50
2019-05-19T04:54:21.376Z,13.23
2019-05-19T04:56:24.930Z,17.43
2019-05-19T04:58:28.783Z,18.60
2019-05-19T05:00:32.712Z,15.13
2019-05-19T05:02:36.601Z,16.07
2019-05-19T05:04:40.402Z,16.37
2019-05-19T05:06:44.308Z,15.20
2019-05-19T05:08:48.214Z,15.83
2019-05-19T05:10:52.116Z,15.80
2019-05-19T05:12:56.014Z,14.10
2019-05-19T05:14:59.554Z,14.47
2019-05-19T05:17:03.416Z,13.83
2019-05-19T05:19:06.961Z,12.40
2019-05-19T05:21:10.534Z,14.70
2019-05-19T05:23:14.058Z,13.57
2019-05-19T05:25:18.209Z,13.03
2019-05-19T05:27:21.770Z,13.03
2019-05-19T05:29:25.309Z,12.77
2019-05-19T05:31:29.220Z,11.13
2019-05-19T05:33:33.144Z,12.57
2019-05-19T05:35:37.021Z,12.40
2019-05-19T05:37:40.831Z,13.87
2019-05-19T05:39:44.361Z,10.83
2019-05-19T05:41:48.236Z,12.80
2019-05-19T05:43:52.134Z,12.00
2019-05-19T05:45:55.943Z,12.63
2019-05-19T05:47:59.849Z,12.20
2019-05-19T05:50:04.583Z,10.57
2019-05-19T05:52:08.475Z,11.27
2019-05-19T05:54:12.412Z,11.50
2019-05-19T05:56:16.298Z,10.07
2019-05-19T05:58:20.202Z,10.27
2019-05-19T06:00:24.132Z,10.57
2019-05-19T06:02:27.915Z,10.30
2019-05-19T06:04:31.806Z,10.47
2019-05-19T06:06:35.338Z,10.03
2019-05-19T06:08:39.205Z,9.30
2019-05-19T06:10:43.216Z,10.07
2019-05-19T06:12:47.117Z,10.23
2019-05-19T06:14:51.051Z,11.40
2019-05-19T06:16:54.933Z,11.40
2019-05-19T06:18:58.833Z,10.43
2019-05-19T06:21:02.755Z,10.03
2019-05-19T06:23:06.648Z,12.07
2019-05-19T06:25:10.672Z,9.17
2019-05-19T06:27:14.231Z,9.33
2019-05-19T06:29:17.747Z,8.67
2019-05-19T06:31:21.654Z,8.40
2019-05-19T06:33:25.672Z,8.00
2019-05-19T06:35:29.580Z,6.93
2019-05-19T06:37:33.467Z,6.53
2019-05-19T06:39:37.289Z,8.33
2019-05-19T06:41:41.187Z,32.53
2019-05-19T06:43:45.091Z,9.67
2019-05-19T06:45:48.623Z,7.57
2019-05-19T06:47:52.491Z,7.00
2019-05-19T06:49:56.403Z,6.90
2019-05-19T06:52:00.299Z,7.10
2019-05-19T06:54:04.200Z,8.83
2019-05-19T06:56:08.101Z,7.10
2019-05-19T06:58:11.924Z,5.90
2019-05-19T07:00:16.097Z,4.83
2019-05-19T07:02:19.816Z,4.10
2019-05-19T07:04:23.841Z,4.83
2019-05-19T07:06:27.399Z,4.97
2019-05-19T07:08:30.931Z,5.20
2019-05-19T07:10:34.841Z,4.40
2019-05-19T07:12:38.433Z,4.50
2019-05-19T07:14:42.341Z,4.53
2019-05-19T07:16:46.243Z,4.03
2019-05-19T07:18:50.053Z,4.13
2019-05-19T07:20:53.848Z,4.40
2019-05-19T07:22:57.763Z,4.20
2019-05-19T07:25:01.662Z,4.80
2019-05-19T07:27:05.194Z,4.20
2019-05-19T07:29:08.714Z,4.40
2019-05-19T07:31:12.562Z,4.37
2019-05-19T07:33:16.456Z,5.63
2019-05-19T07:35:19.995Z,4.53
2019-05-19T07:37:23.501Z,4.83
2019-05-19T07:39:27.355Z,4.87
2019-05-19T07:41:31.275Z,4.87
2019-05-19T07:43:34.795Z,3.93
2019-05-19T07:45:38.668Z,4.30
2019-05-19T07:47:42.471Z,4.07
2019-05-19T07:49:46.371Z,3.60
2019-05-19T07:51:50.273Z,4.27
2019-05-19T07:53:53.804Z,4.60
2019-05-19T07:55:57.671Z,4.37
2019-05-19T07:58:01.485Z,3.67
2019-05-19T08:00:08.986Z,3.47
2019-05-19T08:02:12.532Z,3.37
2019-05-19T08:04:16.065Z,3.33
2019-05-19T08:06:19.975Z,3.27
2019-05-19T08:08:23.880Z,2.90
2019-05-19T08:10:27.493Z,3.00
2019-05-19T08:12:31.026Z,3.90
2019-05-19T08:14:35.493Z,3.20
2019-05-19T08:16:39.394Z,2.97
2019-05-19T08:18:42.924Z,3.20
2019-05-19T08:20:46.446Z,3.07
2019-05-19T08:22:51.443Z,3.37
2019-05-19T08:24:55.179Z,3.20
2019-05-19T08:26:59.038Z,3.27
2019-05-19T08:29:02.929Z,3.47
2019-05-19T08:31:06.727Z,3.40
2019-05-19T08:33:10.644Z,3.00
2019-05-19T08:35:14.554Z,3.00
2019-05-19T08:37:18.347Z,3.10
2019-05-19T08:39:21.901Z,3.00
2019-05-19T08:41:25.453Z,2.90
2019-05-19T08:43:28.977Z,2.40
2019-05-19T08:45:32.838Z,2.63
2019-05-19T08:47:36.636Z,2.77
2019-05-19T08:49:40.548Z,2.87
2019-05-19T08:51:44.088Z,2.60
2019-05-19T08:53:47.938Z,2.53
2019-05-19T08:55:51.755Z,2.60
2019-05-19T08:57:55.671Z,2.27
2019-05-19T08:59:59.212Z,1.83
2019-05-19T09:02:02.744Z,2.03
2019-05-19T09:04:06.678Z,2.10
2019-05-19T09:06:10.225Z,1.67
2019-05-19T09:08:13.753Z,1.70
2019-05-19T09:10:18.380Z,1.70
2019-05-19T09:12:21.943Z,1.80
2019-05-19T09:14:25.775Z,1.83
2019-05-19T09:16:30.298Z,1.73
2019-05-19T09:18:34.203Z,1.70
2019-05-19T09:20:38.117Z,1.90
2019-05-19T09:22:42.035Z,1.70
2019-05-19T09:24:45.579Z,1.60
2019-05-19T09:26:49.607Z,1.73
2019-05-19T09:28:53.420Z,2.30
2019-05-19T09:30:57.327Z,2.13
2019-05-19T09:33:01.243Z,2.20
2019-05-19T09:35:06.692Z,2.17
2019-05-19T09:37:10.583Z,2.30
2019-05-19T09:39:14.383Z,2.10
2019-05-19T09:41:17.879Z,2.57
2019-05-19T09:43:21.783Z,2.97
2019-05-19T09:45:25.320Z,2.30
2019-05-19T09:47:28.822Z,2.20
2019-05-19T09:49:33.301Z,2.60
2019-05-19T09:51:37.199Z,2.67
2019-05-19T09:53:41.109Z,2.40
2019-05-19T09:55:44.627Z,2.60
2019-05-19T09:57:48.513Z,2.77
2019-05-19T09:59:52.052Z,2.30
2019-05-19T10:01:55.921Z,2.30
2019-05-19T10:03:59.701Z,2.43
2019-05-19T10:06:03.699Z,2.43
2019-05-19T10:08:07.627Z,2.20
2019-05-19T10:10:32.607Z,2.17
2019-05-19T10:12:36.431Z,2.00
2019-05-19T10:14:40.231Z,1.97
2019-05-19T10:16:44.122Z,1.70
2019-05-19T10:18:47.645Z,2.00
2019-05-19T10:20:51.535Z,2.00
2019-05-19T10:22:55.327Z,1.90
2019-05-19T10:25:19.991Z,1.40
2019-05-19T10:27:04.415Z,1.70
2019-05-19T10:29:07.943Z,1.53
2019-05-19T10:31:11.463Z,1.50
2019-05-19T10:33:15.060Z,1.70
2019-05-19T10:35:19.084Z,1.50
2019-05-19T10:37:22.987Z,1.63
2019-05-19T10:39:26.889Z,1.67
2019-05-19T10:41:30.678Z,2.07
2019-05-19T10:43:34.596Z,2.00
2019-05-19T10:45:40.042Z,1.50
2019-05-19T10:47:43.944Z,1.53
2019-05-19T10:49:47.456Z,1.73
2019-05-19T10:51:50.965Z,2.20
2019-05-19T10:53:54.935Z,1.83
2019-05-19T10:55:58.453Z,1.70
2019-05-19T10:58:02.367Z,1.83
2019-05-19T11:00:07.240Z,1.80
2019-05-19T11:02:11.166Z,1.37
2019-05-19T11:04:14.982Z,1.20
2019-05-19T11:06:18.521Z,1.60
2019-05-19T11:08:22.035Z,1.90
2019-05-19T11:10:25.568Z,1.60
2019-05-19T11:12:29.464Z,1.80
2019-05-19T11:14:33.268Z,1.40
2019-05-19T11:16:37.646Z,1.90
2019-05-19T11:18:41.159Z,1.80
2019-05-19T11:20:44.679Z,1.50
2019-05-19T11:22:48.595Z,1.80
2019-05-19T11:24:52.577Z,1.40
2019-05-19T11:26:56.409Z,1.70
2019-05-19T11:28:59.988Z,1.70
2019-05-19T11:31:04.007Z,1.43
2019-05-19T11:33:07.546Z,1.20
2019-05-19T11:35:11.707Z,1.70
2019-05-19T11:37:15.613Z,1.50
2019-05-19T11:39:19.428Z,1.40
2019-05-19T11:41:22.956Z,1.70
2019-05-19T11:43:27.047Z,1.23
2019-05-19T11:45:30.560Z,1.20
2019-05-19T11:47:34.089Z,1.70
2019-05-19T11:49:37.929Z,1.50
2019-05-19T11:51:41.447Z,1.77
2019-05-19T11:53:44.981Z,1.40
2019-05-19T11:55:48.857Z,1.83
2019-05-19T11:57:52.618Z,1.50
2019-05-19T11:59:56.430Z,1.70
2019-05-19T12:01:59.982Z,1.60
2019-05-19T12:04:03.836Z,1.60
2019-05-19T12:06:07.645Z,1.60
2019-05-19T12:08:11.557Z,1.53
2019-05-19T12:10:15.670Z,1.83
2019-05-19T12:12:19.561Z,1.90
2019-05-19T12:14:23.473Z,1.50
2019-05-19T12:16:27.359Z,1.70
2019-05-19T12:18:31.204Z,1.60
2019-05-19T12:20:35.074Z,1.87
2019-05-19T12:22:38.984Z,1.97
2019-05-19T12:24:42.871Z,1.80
2019-05-19T12:26:46.413Z,1.40
2019-05-19T12:28:50.402Z,1.73
2019-05-19T12:30:54.312Z,1.60
2019-05-19T12:32:59.381Z,1.50
2019-05-19T12:35:04.014Z,1.60
2019-05-19T12:37:07.843Z,1.60
2019-05-19T12:39:11.750Z,1.80
2019-05-19T12:41:15.610Z,1.60
2019-05-19T12:43:19.582Z,1.83
2019-05-19T12:45:23.571Z,1.50
2019-05-19T12:47:27.382Z,1.83
2019-05-19T12:49:30.902Z,1.90
2019-05-19T12:51:34.782Z,1.63
2019-05-19T12:53:38.686Z,2.10
2019-05-19T12:55:42.511Z,2.00
2019-05-19T12:57:46.390Z,2.10
2019-05-19T12:59:50.294Z,2.30
2019-05-19T13:01:53.818Z,2.27
2019-05-19T13:03:57.699Z,2.20
2019-05-19T13:06:01.494Z,1.73
2019-05-19T13:08:05.305Z,1.70
2019-05-19T13:10:10.438Z,1.77
2019-05-19T13:12:14.253Z,2.00
2019-05-19T13:14:17.780Z,2.23
2019-05-19T13:16:21.331Z,1.70
2019-05-19T13:18:25.154Z,2.10
2019-05-19T13:20:28.677Z,2.20
2019-05-19T13:22:32.547Z,1.80
2019-05-19T13:24:36.354Z,1.67
2019-05-19T13:26:55.283Z,1.87
2019-05-19T13:28:45.692Z,1.60
2019-05-19T13:30:49.220Z,1.87
2019-05-19T13:32:53.061Z,2.00
2019-05-19T13:34:56.907Z,1.70
2019-05-19T13:37:00.706Z,1.73
2019-05-19T13:39:06.542Z,1.70
2019-05-19T13:41:10.092Z,1.80
2019-05-19T13:43:13.966Z,1.80
2019-05-19T13:45:18.080Z,2.20
2019-05-19T13:47:21.978Z,1.70
2019-05-19T13:49:25.972Z,1.63
2019-05-19T13:51:29.502Z,1.70
2019-05-19T13:53:33.382Z,1.90
2019-05-19T13:55:37.278Z,2.10
2019-05-19T13:57:41.082Z,1.90
2019-05-19T13:59:44.993Z,2.00
2019-05-19T14:01:48.796Z,2.20
2019-05-19T14:03:52.598Z,1.87
2019-05-19T14:05:56.150Z,2.30
2019-05-19T14:07:59.994Z,2.27
2019-05-19T14:10:04.924Z,1.87
2019-05-19T14:12:08.821Z,2.27
2019-05-19T14:14:12.346Z,2.00
2019-05-19T14:16:16.244Z,2.43
2019-05-19T14:18:19.793Z,2.03
2019-05-19T14:20:23.644Z,2.17
2019-05-19T14:22:27.432Z,2.00
2019-05-19T14:24:31.353Z,2.00
2019-05-19T14:26:35.238Z,1.60
2019-05-19T14:28:38.757Z,1.93
2019-05-19T14:30:42.302Z,2.07
2019-05-19T14:32:45.832Z,1.80
2019-05-19T14:34:49.645Z,1.80
2019-05-19T14:36:53.536Z,1.80
2019-05-19T14:39:05.037Z,1.80
2019-05-19T14:41:06.262Z,1.70
2019-05-19T14:43:10.288Z,1.80
2019-05-19T14:45:14.588Z,1.80
2019-05-19T14:47:18.398Z,1.60
2019-05-19T14:49:22.300Z,1.67
2019-05-19T14:51:25.859Z,1.87
2019-05-19T14:53:29.628Z,2.00
2019-05-19T14:55:33.505Z,1.70
2019-05-19T14:57:44.786Z,1.90
2019-05-19T14:59:42.648Z,1.80
2019-05-19T15:01:46.540Z,1.73
2019-05-19T15:03:50.351Z,1.77
2019-05-19T15:05:53.873Z,1.67
2019-05-19T15:07:57.749Z,1.80
2019-05-19T15:10:01.262Z,1.97
2019-05-19T15:12:04.776Z,1.70
2019-05-19T15:14:08.658Z,1.70
2019-05-19T15:16:12.566Z,2.00
2019-05-19T15:18:16.465Z,1.53
2019-05-19T15:20:20.259Z,1.63
2019-05-19T15:22:23.814Z,1.70
2019-05-19T15:24:27.346Z,1.90
2019-05-19T15:26:31.169Z,1.83
2019-05-19T15:28:34.991Z,1.80
2019-05-19T15:30:38.886Z,2.20
2019-05-19T15:32:42.784Z,2.03
2019-05-19T15:34:46.309Z,2.50
2019-05-19T15:36:50.205Z,2.27
2019-05-19T15:38:54.087Z,2.10
2019-05-19T15:40:57.621Z,2.30
2019-05-19T15:43:01.500Z,2.17
2019-05-19T15:45:07.088Z,2.50
2019-05-19T15:47:10.942Z,2.10
2019-05-19T15:49:14.844Z,2.20
2019-05-19T15:51:28.754Z,2.50
2019-05-19T15:53:24.427Z,2.30
2019-05-19T15:55:28.306Z,2.60
2019-05-19T15:57:32.218Z,2.27
2019-05-19T15:59:35.761Z,3.00
2019-05-19T16:01:39.677Z,2.50
2019-05-19T16:03:43.517Z,2.30
2019-05-19T16:05:47.025Z,2.57
2019-05-19T16:07:50.902Z,2.50
2019-05-19T16:09:54.722Z,2.70
2019-05-19T16:11:58.521Z,2.30
2019-05-19T16:14:02.465Z,2.47
2019-05-19T16:16:06.329Z,2.60
2019-05-19T16:18:10.225Z,2.00
2019-05-19T16:20:14.263Z,2.60
2019-05-19T16:22:18.154Z,2.60
2019-05-19T16:24:21.979Z,2.30
2019-05-19T16:26:25.490Z,2.60
2019-05-19T16:28:31.007Z,2.17
2019-05-19T16:30:35.020Z,2.47
2019-05-19T16:32:38.686Z,2.47
2019-05-19T16:34:42.614Z,2.83
2019-05-19T16:36:46.150Z,2.70
2019-05-19T16:38:50.016Z,2.37
2019-05-19T16:40:53.527Z,3.10
2019-05-19T16:42:57.065Z,2.47
2019-05-19T16:45:00.906Z,2.77
2019-05-19T16:47:04.527Z,2.47
2019-05-19T16:49:08.411Z,2.97
2019-05-19T16:51:12.215Z,2.40
2019-05-19T16:53:16.126Z,2.77
2019-05-19T16:55:27.092Z,2.70
2019-05-19T16:57:30.990Z,2.43
2019-05-19T16:59:34.893Z,2.53
2019-05-19T17:01:38.710Z,2.60
2019-05-19T17:03:42.603Z,2.93
2019-05-19T17:05:46.502Z,3.30
2019-05-19T17:07:50.424Z,2.67
2019-05-19T17:09:53.957Z,2.50
2019-05-19T17:11:57.907Z,2.60
2019-05-19T17:14:01.937Z,2.90
2019-05-19T17:16:05.697Z,2.60
2019-05-19T17:18:09.222Z,2.50
2019-05-19T17:20:13.461Z,2.70
2019-05-19T17:22:17.377Z,2.63
2019-05-19T17:24:21.238Z,2.87
2019-05-19T17:26:24.787Z,2.70
2019-05-19T17:28:28.467Z,2.40
2019-05-19T17:30:32.092Z,2.67
2019-05-19T17:32:35.622Z,2.60
2019-05-19T17:34:39.443Z,3.10
2019-05-19T17:36:43.345Z,2.73
2019-05-19T17:38:47.155Z,2.80
2019-05-19T17:40:50.977Z,2.93
2019-05-19T17:42:54.850Z,3.37
2019-05-19T17:44:58.373Z,4.17
2019-05-19T17:47:02.271Z,4.00
2019-05-19T17:49:06.063Z,4.20
2019-05-19T17:51:09.620Z,3.37
2019-05-19T17:53:13.577Z,3.20
2019-05-19T17:55:17.159Z,3.43
2019-05-19T17:57:21.695Z,2.77
2019-05-19T17:59:25.768Z,2.97
2019-05-19T18:01:29.587Z,2.70
2019-05-19T18:03:33.507Z,3.07
2019-05-19T18:05:37.502Z,2.83
2019-05-19T18:07:41.311Z,3.57
2019-05-19T18:09:45.213Z,2.87
2019-05-19T18:11:49.128Z,3.27
2019-05-19T18:13:53.022Z,3.13
2019-05-19T18:15:56.570Z,2.90
2019-05-19T18:18:00.439Z,3.27
2019-05-19T18:20:06.553Z,3.60
2019-05-19T18:22:10.389Z,3.37
2019-05-19T18:24:14.205Z,3.23
2019-05-19T18:26:18.007Z,3.87
2019-05-19T18:28:21.534Z,3.87
2019-05-19T18:30:25.393Z,3.40
2019-05-19T18:32:29.310Z,3.77
2019-05-19T18:34:32.826Z,3.77
2019-05-19T18:36:36.705Z,3.80
2019-05-19T18:38:40.611Z,3.63
2019-05-19T18:40:44.504Z,3.43
2019-05-19T18:42:48.420Z,4.13
2019-05-19T18:44:52.232Z,3.80
2019-05-19T18:46:56.168Z,4.77
2019-05-19T18:48:59.719Z,4.10
2019-05-19T18:51:03.528Z,3.67
2019-05-19T18:53:07.346Z,3.67
2019-05-19T18:55:11.052Z,3.50
2019-05-19T18:57:14.601Z,3.70
2019-05-19T18:59:18.437Z,4.07
2019-05-19T19:01:22.345Z,3.60
2019-05-19T19:03:26.662Z,3.63
2019-05-19T19:05:30.565Z,4.10
2019-05-19T19:07:50.881Z,3.83
2019-05-19T19:09:54.409Z,4.33
2019-05-19T19:11:58.264Z,3.80
2019-05-19T19:14:02.158Z,4.00
2019-05-19T19:16:05.685Z,4.27
2019-05-19T19:18:09.561Z,4.60
2019-05-19T19:20:13.691Z,4.10
2019-05-19T19:22:17.586Z,4.20
2019-05-19T19:24:21.483Z,4.17
2019-05-19T19:26:25.015Z,3.93
2019-05-19T19:28:28.558Z,4.33
2019-05-19T19:30:32.501Z,4.10
2019-05-19T19:32:36.388Z,4.03
2019-05-19T19:34:41.011Z,4.50
2019-05-19T19:36:44.802Z,4.30
2019-05-19T19:38:48.619Z,4.50
2019-05-19T19:40:54.179Z,4.40
2019-05-19T19:43:00.469Z,3.73
2019-05-19T19:45:04.840Z,4.60
2019-05-19T19:47:08.814Z,4.50
2019-05-19T19:49:12.665Z,4.70
2019-05-19T19:51:16.545Z,4.40
2019-05-19T19:53:20.359Z,4.10
2019-05-19T19:55:24.269Z,4.53
2019-05-19T19:57:28.168Z,4.57
2019-05-19T19:59:31.971Z,4.10
2019-05-19T20:01:35.531Z,3.90
2019-05-19T20:03:40.303Z,3.93
2019-05-19T20:05:44.624Z,3.70
2019-05-19T20:07:48.816Z,4.33
2019-05-19T20:09:52.737Z,4.07
2019-05-19T20:11:56.753Z,4.47
2019-05-19T20:14:00.631Z,4.77
2019-05-19T20:16:04.145Z,4.43
2019-05-19T20:18:09.432Z,4.30
2019-05-19T20:20:13.579Z,4.57
2019-05-19T20:22:17.379Z,4.40
2019-05-19T20:24:21.325Z,4.63
2019-05-19T20:26:25.213Z,4.60
2019-05-19T20:28:29.118Z,4.47
2019-05-19T20:30:36.035Z,5.20
2019-05-19T20:32:38.664Z,4.90
2019-05-19T20:34:42.559Z,5.17
2019-05-19T20:36:46.109Z,4.60
2019-05-19T20:38:49.630Z,4.97
2019-05-19T20:40:53.457Z,5.40
2019-05-19T20:42:57.362Z,4.77
2019-05-19T20:45:01.255Z,4.73
2019-05-19T20:47:04.789Z,4.90
2019-05-19T20:49:08.673Z,5.93
2019-05-19T20:51:12.584Z,5.57
2019-05-19T20:53:16.483Z,6.40
2019-05-19T20:55:20.023Z,5.67
2019-05-19T20:57:23.545Z,5.70
2019-05-19T20:59:27.082Z,6.90
2019-05-19T21:01:30.650Z,6.50
2019-05-19T21:03:34.215Z,6.90
2019-05-19T21:05:38.057Z,6.43
2019-05-19T21:07:41.964Z,6.40
2019-05-19T21:09:45.871Z,6.17
2019-05-19T21:11:49.698Z,6.27
2019-05-19T21:13:53.587Z,5.67
2019-05-19T21:15:57.404Z,6.27
2019-05-19T21:18:00.913Z,5.63
2019-05-19T21:20:06.026Z,5.83
2019-05-19T21:22:09.817Z,5.93
2019-05-19T21:24:13.739Z,5.47
2019-05-19T21:26:17.257Z,6.63
2019-05-19T21:28:21.225Z,6.50
2019-05-19T21:30:25.148Z,6.60
2019-05-19T21:32:28.677Z,6.33
2019-05-19T21:34:32.201Z,6.40
2019-05-19T21:36:36.017Z,6.90
2019-05-19T21:38:39.843Z,7.10
2019-05-19T21:40:43.739Z,12.97
2019-05-19T21:42:47.653Z,10.27
2019-05-19T21:44:51.552Z,8.43
2019-05-19T21:46:55.456Z,6.73
2019-05-19T21:48:59.359Z,6.47
2019-05-19T21:51:03.293Z,6.30
2019-05-19T21:53:06.905Z,6.33
2019-05-19T21:55:10.552Z,6.37
2019-05-19T21:57:14.463Z,5.80
2019-05-19T21:59:18.273Z,6.10
2019-05-19T22:01:23.654Z,5.90
2019-05-19T22:03:27.729Z,5.73
2019-05-19T22:05:31.248Z,6.50
2019-05-19T22:07:36.758Z,5.63
2019-05-19T22:09:40.277Z,6.13
2019-05-19T22:11:44.157Z,5.67
2019-05-19T22:13:48.058Z,5.20
2019-05-19T22:15:51.883Z,8.53
2019-05-19T22:17:55.663Z,8.10
2019-05-19T22:19:59.574Z,5.80
2019-05-19T22:22:03.166Z,7.80
2019-05-19T22:24:07.077Z,7.73
2019-05-19T22:26:10.888Z,6.87
2019-05-19T22:28:14.783Z,10.30
2019-05-19T22:30:18.901Z,8.53
2019-05-19T22:32:22.420Z,7.77
2019-05-19T22:34:26.304Z,7.83
2019-05-19T22:36:29.851Z,6.27
2019-05-19T22:38:33.375Z,7.23
2019-05-19T22:40:37.207Z,7.63
2019-05-19T22:42:41.106Z,6.17
2019-05-19T22:44:44.636Z,8.37
2019-05-19T22:46:48.495Z,6.50
2019-05-19T22:48:52.333Z,7.40
2019-05-19T22:50:56.200Z,5.80
2019-05-19T22:53:00.022Z,5.67
2019-05-19T22:55:08.062Z,5.40
2019-05-19T22:57:11.914Z,5.97
2019-05-19T22:59:19.604Z,5.17
2019-05-19T23:01:21.117Z,5.30
2019-05-19T23:03:25.399Z,5.63
2019-05-19T23:05:29.276Z,5.30
2019-05-19T23:07:33.184Z,5.73
2019-05-19T23:09:36.983Z,5.13
2019-05-19T23:11:40.934Z,5.10
2019-05-19T23:13:44.810Z,5.10
2019-05-19T23:15:48.704Z,4.90
2019-05-19T23:17:52.259Z,5.20
2019-05-19T23:19:56.108Z,4.77
2019-05-19T23:22:00.027Z,4.80
2019-05-19T23:24:03.921Z,4.80
2019-05-19T23:26:07.737Z,4.80
2019-05-19T23:28:11.636Z,4.63
2019-05-19T23:30:15.734Z,4.80
2019-05-19T23:32:19.547Z,4.70
2019-05-19T23:34:23.074Z,5.10
2019-05-19T23:36:26.602Z,5.27
2019-05-19T23:38:30.430Z,4.73
2019-05-19T23:40:34.344Z,4.50
2019-05-19T23:42:38.155Z,5.33
2019-05-19T23:44:41.682Z,4.70
2019-05-19T23:46:45.208Z,4.87
2019-05-19T23:48:49.050Z,5.23
2019-05-19T23:50:52.959Z,5.00
2019-05-19T23:52:56.862Z,5.30
2019-05-19T23:55:00.663Z,5.27
2019-05-19T23:57:04.564Z,5.17
2019-05-19T23:59:08.115Z,5.23
